ダカール の空港の天気 - METARとTAF

レオポール・セダール・サンゴール国際空港 ( GOOY / DKR ) - セネガル ダカール
飛行場実況気象(Metar)
観測時間10/19 18:00 GMT (10/19 18:00 UTC)
風向・風速北北西 3m/s
視程10km以上
天気現象
なし
気温28℃
湿度84%
気圧1008hPa
METARGOOY 191800Z 34006KT CAVOK 28/25 Q1008
過去の天気等 Google飛行場航空写真 Wunderground天気予報

過去48時間のMETAR

飛行場予報(TAF)
発表時間: 10/19 11:30 GMT (10/19 11:30 UTC)
予報対象時間: 19日12時 GMT ~ 20日18時 GMT
風向・風速北 5m/s
視程10km以上
なし
TAF GOOY 191130Z 1912/2018 01010KT CAVOK